createdAt,value
2023-01-22T00:00:58.622Z,24.65
2023-01-22T00:03:25.301Z,24.53
2023-01-22T00:05:52.389Z,24.65
2023-01-22T00:08:19.617Z,24.65
2023-01-22T00:10:52.663Z,24.63
2023-01-22T00:13:19.265Z,24.74
2023-01-22T00:15:46.058Z,24.50
2023-01-22T00:18:12.637Z,24.55
2023-01-22T00:20:40.855Z,24.51
2023-01-22T00:23:08.191Z,24.61
2023-01-22T00:25:34.808Z,24.61
2023-01-22T00:28:01.332Z,24.55
2023-01-22T00:30:28.072Z,24.58
2023-01-22T00:32:54.581Z,24.56
2023-01-22T00:35:21.102Z,24.56
2023-01-22T00:37:48.231Z,24.53
2023-01-22T00:40:15.795Z,24.54
2023-01-22T00:42:42.672Z,24.53
2023-01-22T00:45:10.657Z,24.51
2023-01-22T00:47:38.832Z,24.42
2023-01-22T00:50:05.825Z,24.50
2023-01-22T00:52:32.447Z,24.54
2023-01-22T00:54:59.049Z,24.53
2023-01-22T00:57:25.653Z,24.51
2023-01-22T00:59:52.373Z,24.53
2023-01-22T01:02:19.048Z,24.49
2023-01-22T01:04:45.622Z,24.52
2023-01-22T01:07:12.356Z,24.51
2023-01-22T01:09:38.921Z,24.50
2023-01-22T01:12:05.549Z,24.52
2023-01-22T01:14:32.089Z,24.50
2023-01-22T01:16:59.132Z,24.40
2023-01-22T01:19:25.689Z,24.37
2023-01-22T01:21:52.304Z,24.50
2023-01-22T01:24:18.876Z,24.52
2023-01-22T01:26:45.437Z,24.52
2023-01-22T01:29:12.036Z,24.51
2023-01-22T01:31:38.721Z,24.49
2023-01-22T01:34:05.273Z,24.52
2023-01-22T01:36:47.576Z,24.54
2023-01-22T01:39:14.924Z,24.63
2023-01-22T01:41:41.448Z,24.54
2023-01-22T01:44:15.889Z,24.56
2023-01-22T01:47:00.385Z,24.58
2023-01-22T01:49:34.500Z,24.55
2023-01-22T01:52:02.012Z,24.53
2023-01-22T01:54:28.976Z,24.50
2023-01-22T01:57:10.097Z,24.49
2023-01-22T01:59:36.849Z,24.51
2023-01-22T02:02:03.609Z,24.48
2023-01-22T02:04:30.252Z,24.51
2023-01-22T02:06:56.821Z,24.52
2023-01-22T02:09:23.433Z,24.52
2023-01-22T02:11:50.517Z,24.53
2023-01-22T02:14:18.303Z,24.47
2023-01-22T02:16:44.967Z,24.47
2023-01-22T02:19:11.532Z,24.46
2023-01-22T02:21:42.297Z,24.51
2023-01-22T02:24:10.788Z,24.48
2023-01-22T02:26:38.477Z,24.46
2023-01-22T02:29:07.853Z,24.48
2023-01-22T02:31:36.251Z,24.48
2023-01-22T02:34:03.148Z,24.47
2023-01-22T02:36:31.039Z,24.49
2023-01-22T02:38:57.664Z,24.48
2023-01-22T02:41:24.721Z,24.49
2023-01-22T02:43:51.369Z,24.49
2023-01-22T02:46:20.583Z,24.52
2023-01-22T02:48:47.157Z,24.48
2023-01-22T02:51:15.633Z,24.45
2023-01-22T02:53:44.261Z,24.49
2023-01-22T02:56:11.213Z,24.50
2023-01-22T02:58:39.269Z,24.49
2023-01-22T03:01:23.109Z,24.53
2023-01-22T03:03:59.386Z,24.54
2023-01-22T03:06:27.268Z,24.42
2023-01-22T03:08:57.926Z,24.51
2023-01-22T03:11:25.577Z,24.52
2023-01-22T03:14:12.687Z,24.52
2023-01-22T03:16:59.625Z,24.53
2023-01-22T03:19:44.454Z,24.41
2023-01-22T03:22:17.286Z,24.50
2023-01-22T03:24:44.252Z,24.44
2023-01-22T03:27:10.901Z,24.47
2023-01-22T03:29:38.316Z,24.50
2023-01-22T03:32:06.632Z,24.40
2023-01-22T03:34:35.984Z,24.46
2023-01-22T03:37:04.890Z,24.49
2023-01-22T03:39:31.775Z,24.38
2023-01-22T03:41:58.536Z,24.44
2023-01-22T03:44:25.974Z,24.48
2023-01-22T03:46:54.112Z,24.48
2023-01-22T03:49:20.808Z,24.47
2023-01-22T03:51:51.584Z,24.43
2023-01-22T03:54:18.204Z,24.46
2023-01-22T03:56:44.878Z,24.45
2023-01-22T03:59:21.114Z,24.49
2023-01-22T04:01:48.019Z,24.48
2023-01-22T04:04:14.571Z,24.44
2023-01-22T04:06:42.918Z,24.48
2023-01-22T04:09:09.506Z,24.48
2023-01-22T04:11:45.670Z,24.45
2023-01-22T04:14:13.478Z,24.44
2023-01-22T04:16:46.193Z,24.48
2023-01-22T04:19:48.134Z,24.44
2023-01-22T04:22:43.652Z,24.44
2023-01-22T04:25:12.344Z,24.44
2023-01-22T04:27:38.967Z,24.37
2023-01-22T04:30:06.877Z,24.42
2023-01-22T04:32:34.357Z,24.43
2023-01-22T04:35:19.764Z,24.44
2023-01-22T04:37:54.497Z,24.45
2023-01-22T04:40:21.255Z,24.44
2023-01-22T04:42:49.281Z,24.37
2023-01-22T04:45:15.954Z,24.44
2023-01-22T04:47:43.073Z,24.27
2023-01-22T04:50:16.116Z,24.45
2023-01-22T04:52:42.996Z,24.43
2023-01-22T04:55:10.199Z,24.44
2023-01-22T04:57:46.119Z,24.42
2023-01-22T05:00:13.076Z,24.39
2023-01-22T05:02:39.861Z,24.41
2023-01-22T05:05:07.776Z,24.36
2023-01-22T05:07:34.620Z,24.43
2023-01-22T05:10:01.284Z,24.41
2023-01-22T05:12:28.146Z,24.42
2023-01-22T05:14:54.833Z,24.40
2023-01-22T05:17:22.023Z,24.42
2023-01-22T05:19:49.435Z,24.37
2023-01-22T05:22:20.173Z,24.41
2023-01-22T05:24:47.945Z,24.32
2023-01-22T05:27:14.820Z,24.39
2023-01-22T05:29:51.775Z,24.37
2023-01-22T05:32:31.864Z,24.37
2023-01-22T05:34:58.477Z,24.37
2023-01-22T05:37:25.733Z,24.36
2023-01-22T05:39:52.319Z,24.35
2023-01-22T05:42:20.877Z,24.33
2023-01-22T05:44:49.800Z,24.36
2023-01-22T05:47:20.089Z,24.34
2023-01-22T05:49:59.682Z,24.36
2023-01-22T05:52:26.284Z,24.36
2023-01-22T05:54:52.878Z,24.34
2023-01-22T05:57:19.554Z,24.33
2023-01-22T05:59:46.151Z,24.32
2023-01-22T06:02:13.885Z,24.30
2023-01-22T06:04:43.643Z,24.34
2023-01-22T06:07:19.598Z,24.34
2023-01-22T06:09:46.313Z,24.32
2023-01-22T06:12:12.978Z,24.31
2023-01-22T06:14:39.719Z,24.32
2023-01-22T06:17:06.970Z,24.28
2023-01-22T06:19:36.143Z,24.28
2023-01-22T06:22:04.172Z,24.26
2023-01-22T06:24:40.858Z,24.29
2023-01-22T06:27:09.521Z,24.33
2023-01-22T06:29:49.568Z,24.34
2023-01-22T06:32:16.666Z,24.31
2023-01-22T06:34:44.044Z,24.32
2023-01-22T06:37:10.728Z,24.32
2023-01-22T06:39:38.764Z,24.20
2023-01-22T06:42:12.956Z,24.31
2023-01-22T06:44:40.077Z,24.27
2023-01-22T06:47:07.940Z,24.27
2023-01-22T06:49:34.559Z,24.27
2023-01-22T06:52:01.122Z,24.27
2023-01-22T06:54:28.158Z,24.31
2023-01-22T06:56:54.767Z,24.28
2023-01-22T06:59:23.791Z,24.30
2023-01-22T07:01:50.327Z,24.30
2023-01-22T07:04:16.940Z,24.29
2023-01-22T07:06:43.800Z,24.27
2023-01-22T07:09:10.309Z,24.28
2023-01-22T07:11:36.821Z,24.27
2023-01-22T07:14:03.354Z,24.23
2023-01-22T07:16:29.951Z,24.26
2023-01-22T07:18:56.472Z,24.26
2023-01-22T07:21:23.037Z,24.23
2023-01-22T07:23:49.599Z,24.24
2023-01-22T07:26:17.135Z,24.24
2023-01-22T07:28:44.668Z,24.23
2023-01-22T07:31:11.961Z,24.23
2023-01-22T07:33:38.739Z,24.17
2023-01-22T07:36:05.724Z,24.25
2023-01-22T07:38:32.364Z,24.20
2023-01-22T07:41:04.375Z,24.25
2023-01-22T07:43:32.633Z,24.18
2023-01-22T07:46:02.938Z,24.19
2023-01-22T07:48:29.664Z,24.21
2023-01-22T07:51:03.096Z,24.13
2023-01-22T07:53:29.599Z,24.19
2023-01-22T07:55:56.271Z,24.22
2023-01-22T07:58:22.893Z,24.17
2023-01-22T08:00:49.588Z,24.20
2023-01-22T08:03:16.221Z,24.19
2023-01-22T08:05:43.038Z,24.20
2023-01-22T08:08:20.523Z,24.25
2023-01-22T08:10:47.675Z,24.21
2023-01-22T08:13:14.320Z,24.20
2023-01-22T08:15:42.096Z,24.21
2023-01-22T08:18:10.291Z,24.19
2023-01-22T08:20:36.832Z,24.18
2023-01-22T08:23:03.363Z,24.20
2023-01-22T08:25:29.995Z,24.21
2023-01-22T08:27:56.632Z,24.21
2023-01-22T08:30:23.271Z,24.21
2023-01-22T08:32:51.394Z,24.20
2023-01-22T08:35:18.117Z,24.21
2023-01-22T08:37:44.742Z,24.21
2023-01-22T08:40:11.876Z,24.15
2023-01-22T08:42:38.443Z,24.22
2023-01-22T08:45:05.614Z,24.21
2023-01-22T08:47:32.181Z,24.22
2023-01-22T08:49:58.729Z,24.17
2023-01-22T08:52:25.317Z,24.22
2023-01-22T08:54:51.901Z,24.23
2023-01-22T08:57:18.444Z,24.22
2023-01-22T08:59:59.815Z,24.09
2023-01-22T09:02:27.966Z,24.23
2023-01-22T09:04:54.570Z,24.23
2023-01-22T09:07:21.119Z,24.24
2023-01-22T09:09:47.685Z,24.31
2023-01-22T09:12:14.299Z,24.31
2023-01-22T09:14:40.942Z,24.23
2023-01-22T09:17:07.632Z,24.09
2023-01-22T09:19:34.176Z,24.04
2023-01-22T09:22:06.218Z,24.03
2023-01-22T09:24:33.157Z,24.07
2023-01-22T09:26:59.719Z,24.11
2023-01-22T09:29:26.295Z,24.10
2023-01-22T09:31:53.186Z,24.15
2023-01-22T09:34:19.778Z,24.18
2023-01-22T09:36:46.363Z,24.23
2023-01-22T09:39:12.908Z,24.24
2023-01-22T09:41:40.506Z,24.20
2023-01-22T09:44:40.783Z,24.30
2023-01-22T09:47:15.314Z,24.31
2023-01-22T09:49:55.024Z,24.27
2023-01-22T09:52:22.424Z,24.28
2023-01-22T09:54:49.181Z,24.28
2023-01-22T09:57:30.796Z,24.28
2023-01-22T09:59:58.261Z,24.32
2023-01-22T10:02:33.875Z,24.37
2023-01-22T10:05:09.631Z,24.33
2023-01-22T10:07:38.349Z,24.33
2023-01-22T10:10:19.067Z,24.34
2023-01-22T10:12:49.168Z,24.34
2023-01-22T10:15:15.804Z,24.34
2023-01-22T10:17:42.460Z,24.35
2023-01-22T10:20:10.725Z,24.36
2023-01-22T10:22:37.354Z,24.38
2023-01-22T10:25:04.211Z,24.34
2023-01-22T10:27:39.364Z,24.39
2023-01-22T10:30:17.037Z,24.39
2023-01-22T10:32:43.838Z,24.41
2023-01-22T10:35:18.794Z,24.44
2023-01-22T10:37:49.823Z,24.43
2023-01-22T10:40:37.913Z,24.43
2023-01-22T10:43:15.320Z,24.29
2023-01-22T10:45:52.124Z,24.16
2023-01-22T10:48:19.136Z,24.06
2023-01-22T10:50:46.011Z,23.94
2023-01-22T10:53:21.178Z,23.82
2023-01-22T10:55:55.940Z,23.64
2023-01-22T10:58:24.463Z,23.41
2023-01-22T11:01:06.717Z,23.21
2023-01-22T11:03:37.818Z,23.22
2023-01-22T11:06:11.459Z,23.20
2023-01-22T11:08:56.474Z,23.17
2023-01-22T11:11:38.389Z,23.18
2023-01-22T11:14:10.261Z,23.06
2023-01-22T11:16:37.462Z,23.01
2023-01-22T11:19:16.769Z,22.95
2023-01-22T11:21:47.081Z,22.89
2023-01-22T11:24:14.444Z,22.87
2023-01-22T11:26:50.709Z,22.86
2023-01-22T11:29:35.530Z,22.80
2023-01-22T11:32:40.883Z,22.69
2023-01-22T11:35:31.831Z,22.72
2023-01-22T11:38:04.420Z,22.72
2023-01-22T11:40:33.111Z,22.67
2023-01-22T11:43:18.761Z,22.70
2023-01-22T11:46:05.598Z,22.77
2023-01-22T11:48:52.486Z,22.92
2023-01-22T11:51:27.965Z,23.05
2023-01-22T11:54:30.955Z,23.20
2023-01-22T11:57:20.816Z,23.31
2023-01-22T12:00:03.668Z,23.48
2023-01-22T12:02:55.704Z,23.60
2023-01-22T12:05:40.930Z,23.68
2023-01-22T12:08:17.463Z,23.83
2023-01-22T12:11:02.812Z,23.92
2023-01-22T12:13:46.330Z,24.01
2023-01-22T12:16:44.777Z,24.12
2023-01-22T12:19:33.118Z,24.22
2023-01-22T12:22:08.801Z,24.31
2023-01-22T12:24:35.400Z,24.38
2023-01-22T12:27:05.493Z,24.47
2023-01-22T12:29:48.941Z,24.54
2023-01-22T12:32:19.048Z,24.60
2023-01-22T12:34:50.382Z,24.74
2023-01-22T12:37:20.070Z,24.85
2023-01-22T12:40:06.260Z,24.95
2023-01-22T12:42:40.980Z,25.05
2023-01-22T12:45:22.415Z,25.18
2023-01-22T12:47:59.044Z,25.22
2023-01-22T12:50:26.304Z,25.23
2023-01-22T12:52:59.834Z,25.40
2023-01-22T12:55:44.405Z,25.48
2023-01-22T12:58:25.086Z,25.56
2023-01-22T13:01:10.235Z,25.67
2023-01-22T13:03:40.292Z,25.66
2023-01-22T13:06:22.415Z,25.75
2023-01-22T13:08:49.083Z,25.67
2023-01-22T13:11:32.486Z,25.87
2023-01-22T13:14:23.994Z,25.90
2023-01-22T13:16:59.540Z,25.87
2023-01-22T13:19:46.951Z,25.98
2023-01-22T13:22:15.608Z,25.98
2023-01-22T13:24:56.710Z,26.08
2023-01-22T13:27:29.790Z,26.04
2023-01-22T13:30:16.414Z,26.17
2023-01-22T13:32:43.065Z,26.15
2023-01-22T13:35:15.063Z,26.21
2023-01-22T13:37:44.057Z,26.23
2023-01-22T13:40:28.011Z,26.24
2023-01-22T13:42:54.957Z,26.27
2023-01-22T13:45:31.707Z,26.42
2023-01-22T13:47:59.922Z,26.47
2023-01-22T13:50:28.341Z,26.57
2023-01-22T13:52:59.876Z,26.65
2023-01-22T13:55:26.891Z,26.72
2023-01-22T13:57:55.693Z,26.73
2023-01-22T14:00:36.406Z,26.95
2023-01-22T14:03:03.274Z,26.98
2023-01-22T14:05:34.064Z,27.05
2023-01-22T14:08:11.387Z,27.13
2023-01-22T14:10:38.333Z,27.19
2023-01-22T14:13:10.413Z,27.22
2023-01-22T14:15:37.715Z,27.28
2023-01-22T14:18:16.125Z,27.30
2023-01-22T14:20:46.616Z,27.25
2023-01-22T14:23:13.412Z,27.13
2023-01-22T14:25:44.635Z,26.82
2023-01-22T14:28:11.325Z,26.50
2023-01-22T14:30:38.076Z,26.36
2023-01-22T14:33:05.173Z,26.37
2023-01-22T14:35:31.868Z,26.45
2023-01-22T14:37:58.597Z,26.53
2023-01-22T14:40:26.004Z,26.65
2023-01-22T14:42:55.301Z,26.80
2023-01-22T14:45:22.019Z,26.87
2023-01-22T14:47:49.834Z,26.94
2023-01-22T14:50:16.985Z,27.02
2023-01-22T14:52:43.688Z,27.06
2023-01-22T14:55:10.336Z,27.14
2023-01-22T14:57:39.760Z,27.19
2023-01-22T15:00:07.117Z,27.22
2023-01-22T15:02:36.824Z,27.26
2023-01-22T15:05:04.848Z,27.28
2023-01-22T15:07:33.475Z,27.23
2023-01-22T15:10:00.827Z,27.09
2023-01-22T15:12:27.458Z,27.34
2023-01-22T15:14:54.159Z,27.27
2023-01-22T15:17:23.877Z,27.35
2023-01-22T15:19:51.266Z,27.38
2023-01-22T15:22:17.997Z,27.28
2023-01-22T15:24:44.564Z,27.38
2023-01-22T15:27:11.245Z,27.40
2023-01-22T15:29:37.874Z,27.43
2023-01-22T15:32:07.818Z,27.46
2023-01-22T15:34:34.453Z,27.43
2023-01-22T15:37:02.872Z,27.47
2023-01-22T15:39:29.558Z,27.45
2023-01-22T15:41:56.171Z,27.45
2023-01-22T15:44:22.825Z,27.45
2023-01-22T15:46:49.453Z,27.46
2023-01-22T15:49:18.049Z,27.43
2023-01-22T15:51:44.729Z,27.44
2023-01-22T15:54:14.043Z,27.42
2023-01-22T15:56:40.664Z,27.39
2023-01-22T15:59:07.388Z,27.42
2023-01-22T16:01:34.113Z,27.39
2023-01-22T16:04:01.730Z,27.37
2023-01-22T16:06:29.803Z,27.26
2023-01-22T16:08:59.914Z,27.36
2023-01-22T16:11:27.584Z,27.36
2023-01-22T16:13:54.333Z,27.35
2023-01-22T16:16:23.130Z,27.31
2023-01-22T16:18:49.965Z,27.30
2023-01-22T16:21:16.853Z,27.30
2023-01-22T16:23:44.291Z,27.24
2023-01-22T16:26:16.322Z,27.17
2023-01-22T16:28:43.966Z,27.24
2023-01-22T16:31:13.496Z,27.21
2023-01-22T16:33:42.842Z,27.11
2023-01-22T16:36:12.125Z,27.15
2023-01-22T16:38:39.030Z,27.08
2023-01-22T16:41:24.521Z,27.18
2023-01-22T16:43:55.821Z,27.17
2023-01-22T16:46:27.319Z,27.12
2023-01-22T16:49:01.933Z,27.17
2023-01-22T16:51:39.229Z,27.16
2023-01-22T16:54:06.424Z,27.09
2023-01-22T16:56:36.556Z,27.12
2023-01-22T16:59:03.201Z,27.10
2023-01-22T17:01:30.437Z,27.09
2023-01-22T17:03:58.246Z,27.09
2023-01-22T17:06:37.985Z,27.09
2023-01-22T17:09:04.645Z,27.04
2023-01-22T17:11:31.380Z,27.05
2023-01-22T17:13:59.276Z,26.94
2023-01-22T17:16:25.965Z,27.03
2023-01-22T17:18:55.101Z,26.97
2023-01-22T17:21:21.990Z,26.98
2023-01-22T17:23:48.594Z,26.98
2023-01-22T17:26:15.808Z,26.98
2023-01-22T17:28:42.668Z,26.94
2023-01-22T17:31:15.539Z,26.95
2023-01-22T17:33:42.999Z,26.94
2023-01-22T17:36:12.839Z,26.93
2023-01-22T17:38:40.325Z,26.89
2023-01-22T17:41:14.917Z,26.88
2023-01-22T17:43:41.789Z,26.88
2023-01-22T17:46:12.892Z,26.85
2023-01-22T17:48:42.620Z,26.73
2023-01-22T17:51:11.358Z,26.82
2023-01-22T17:53:39.317Z,26.82
2023-01-22T17:56:14.288Z,26.84
2023-01-22T17:58:42.640Z,26.82
2023-01-22T18:01:09.924Z,26.81
2023-01-22T18:03:38.990Z,26.79
2023-01-22T18:06:06.477Z,26.77
2023-01-22T18:08:33.498Z,26.72
2023-01-22T18:11:15.672Z,26.75
2023-01-22T18:13:46.963Z,26.73
2023-01-22T18:16:15.838Z,26.82
2023-01-22T18:18:42.540Z,26.75
2023-01-22T18:21:19.461Z,26.73
2023-01-22T18:23:46.504Z,26.69
2023-01-22T18:26:13.610Z,26.66
2023-01-22T18:28:40.333Z,26.63
2023-01-22T18:31:14.275Z,26.60
2023-01-22T18:33:41.897Z,26.60
2023-01-22T18:36:12.406Z,26.57
2023-01-22T18:38:40.027Z,26.56
2023-01-22T18:41:18.919Z,26.58
2023-01-22T18:43:50.477Z,26.54
2023-01-22T18:46:18.257Z,26.52
2023-01-22T18:48:45.054Z,26.40
2023-01-22T18:51:13.399Z,26.45
2023-01-22T18:53:41.289Z,26.51
2023-01-22T18:56:09.303Z,26.50
2023-01-22T18:58:36.094Z,26.47
2023-01-22T19:01:20.498Z,26.49
2023-01-22T19:03:52.430Z,26.49
2023-01-22T19:06:21.085Z,26.48
2023-01-22T19:09:00.601Z,26.46
2023-01-22T19:11:27.506Z,26.49
2023-01-22T19:13:55.160Z,26.31
2023-01-22T19:16:22.125Z,26.46
2023-01-22T19:18:53.062Z,26.43
2023-01-22T19:21:20.540Z,26.44
2023-01-22T19:23:52.239Z,26.40
2023-01-22T19:26:26.898Z,26.42
2023-01-22T19:28:56.072Z,26.32
2023-01-22T19:31:25.022Z,26.41
2023-01-22T19:33:52.893Z,26.42
2023-01-22T19:36:19.943Z,26.39
2023-01-22T19:38:46.830Z,26.41
2023-01-22T19:41:13.793Z,26.39
2023-01-22T19:43:41.979Z,26.41
2023-01-22T19:46:11.027Z,26.39
2023-01-22T19:48:38.592Z,26.40
2023-01-22T19:51:11.135Z,26.40
2023-01-22T19:53:38.492Z,26.39
2023-01-22T19:56:05.704Z,26.38
2023-01-22T19:58:32.431Z,26.37
2023-01-22T20:01:01.775Z,26.36
2023-01-22T20:03:32.832Z,26.33
2023-01-22T20:05:59.551Z,26.34
2023-01-22T20:08:29.861Z,26.32
2023-01-22T20:11:00.410Z,26.32
2023-01-22T20:13:27.786Z,26.30
2023-01-22T20:15:58.716Z,26.24
2023-01-22T20:18:28.111Z,26.13
2023-01-22T20:21:00.111Z,26.27
2023-01-22T20:23:27.767Z,25.98
2023-01-22T20:25:55.641Z,26.26
2023-01-22T20:28:22.646Z,26.24
2023-01-22T20:31:00.240Z,26.25
2023-01-22T20:33:27.117Z,26.23
2023-01-22T20:36:01.376Z,26.23
2023-01-22T20:38:30.855Z,26.21
2023-01-22T20:41:02.216Z,26.22
2023-01-22T20:43:28.996Z,26.16
2023-01-22T20:46:06.961Z,26.20
2023-01-22T20:48:34.555Z,26.17
2023-01-22T20:51:01.257Z,26.14
2023-01-22T20:53:28.093Z,26.12
2023-01-22T20:56:06.516Z,26.17
2023-01-22T20:58:33.345Z,26.14
2023-01-22T21:01:07.688Z,26.14
2023-01-22T21:03:34.491Z,26.13
2023-01-22T21:06:04.956Z,26.13
2023-01-22T21:08:31.697Z,26.12
2023-01-22T21:10:59.612Z,26.12
2023-01-22T21:13:26.463Z,26.12
2023-01-22T21:15:53.147Z,26.11
2023-01-22T21:18:20.712Z,26.06
2023-01-22T21:20:47.599Z,26.08
2023-01-22T21:23:14.498Z,26.09
2023-01-22T21:25:41.778Z,26.09
2023-01-22T21:28:08.492Z,26.09
2023-01-22T21:30:35.230Z,26.09
2023-01-22T21:33:01.965Z,26.02
2023-01-22T21:35:28.725Z,25.87
2023-01-22T21:37:55.350Z,25.61
2023-01-22T21:40:22.025Z,25.43
2023-01-22T21:43:07.828Z,25.30
2023-01-22T21:45:53.423Z,25.27
2023-01-22T21:48:20.088Z,25.29
2023-01-22T21:50:46.741Z,25.35
2023-01-22T21:53:13.318Z,25.27
2023-01-22T21:55:39.961Z,25.45
2023-01-22T21:58:08.725Z,25.50
2023-01-22T22:00:35.888Z,25.49
2023-01-22T22:03:02.563Z,25.49
2023-01-22T22:05:30.549Z,25.48
2023-01-22T22:07:58.137Z,25.34
2023-01-22T22:10:24.802Z,25.35
2023-01-22T22:12:53.068Z,25.51
2023-01-22T22:15:19.731Z,25.40
2023-01-22T22:17:46.366Z,25.31
2023-01-22T22:20:13.250Z,25.47
2023-01-22T22:22:39.933Z,25.25
2023-01-22T22:25:06.974Z,25.44
2023-01-22T22:27:33.587Z,25.19
2023-01-22T22:30:00.225Z,25.19
